sensor_id;sensor_type;location;lat;lon;timestamp;pressure;altitude;pressure_sealevel;temperature;humidity
10470;BME280;5282;47.052;15.458;2023-05-11T00:02:11;97336.09;;;12.48;100.00
10470;BME280;5282;47.052;15.458;2023-05-11T00:04:37;97329.03;;;12.62;100.00
10470;BME280;5282;47.052;15.458;2023-05-11T00:07:05;97327.34;;;12.46;100.00
10470;BME280;5282;47.052;15.458;2023-05-11T00:09:35;97328.16;;;12.46;100.00
10470;BME280;5282;47.052;15.458;2023-05-11T00:12:03;97327.44;;;12.53;100.00
10470;BME280;5282;47.052;15.458;2023-05-11T00:14:32;97318.22;;;12.47;100.00
10470;BME280;5282;47.052;15.458;2023-05-11T00:16:59;97318.47;;;12.37;100.00
10470;BME280;5282;47.052;15.458;2023-05-11T00:19:26;97325.19;;;12.41;100.00
10470;BME280;5282;47.052;15.458;2023-05-11T00:21:55;97323.31;;;12.42;100.00
10470;BME280;5282;47.052;15.458;2023-05-11T00:24:22;97316.69;;;12.29;100.00
10470;BME280;5282;47.052;15.458;2023-05-11T00:26:50;97315.47;;;12.32;100.00
10470;BME280;5282;47.052;15.458;2023-05-11T00:29:17;97310.84;;;12.41;100.00
10470;BME280;5282;47.052;15.458;2023-05-11T00:31:44;97310.19;;;12.39;100.00
10470;BME280;5282;47.052;15.458;2023-05-11T00:34:12;97312.50;;;12.42;100.00
10470;BME280;5282;47.052;15.458;2023-05-11T00:36:39;97311.13;;;12.46;100.00
10470;BME280;5282;47.052;15.458;2023-05-11T00:39:07;97308.59;;;12.44;100.00
10470;BME280;5282;47.052;15.458;2023-05-11T00:41:34;97314.66;;;12.31;100.00
10470;BME280;5282;47.052;15.458;2023-05-11T00:44:02;97306.84;;;12.37;100.00
10470;BME280;5282;47.052;15.458;2023-05-11T00:46:29;97309.25;;;12.31;100.00
10470;BME280;5282;47.052;15.458;2023-05-11T00:48:56;97308.59;;;12.29;100.00
10470;BME280;5282;47.052;15.458;2023-05-11T00:51:23;97304.88;;;12.30;100.00
10470;BME280;5282;47.052;15.458;2023-05-11T00:53:51;97302.25;;;12.22;100.00
10470;BME280;5282;47.052;15.458;2023-05-11T00:56:20;97305.88;;;12.29;100.00
10470;BME280;5282;47.052;15.458;2023-05-11T00:58:47;97299.13;;;12.33;100.00
10470;BME280;5282;47.052;15.458;2023-05-11T01:01:15;97303.00;;;12.31;100.00
10470;BME280;5282;47.052;15.458;2023-05-11T01:03:43;97302.31;;;12.14;100.00
10470;BME280;5282;47.052;15.458;2023-05-11T01:06:15;97302.16;;;12.15;100.00
10470;BME280;5282;47.052;15.458;2023-05-11T01:08:46;97299.63;;;12.14;100.00
10470;BME280;5282;47.052;15.458;2023-05-11T01:11:18;97296.91;;;12.14;100.00
10470;BME280;5282;47.052;15.458;2023-05-11T01:13:50;97296.84;;;12.07;100.00
10470;BME280;5282;47.052;15.458;2023-05-11T01:16:21;97292.63;;;12.04;100.00
10470;BME280;5282;47.052;15.458;2023-05-11T01:18:57;97296.94;;;11.91;100.00
10470;BME280;5282;47.052;15.458;2023-05-11T01:21:29;97294.91;;;11.93;100.00
10470;BME280;5282;47.052;15.458;2023-05-11T01:24:22;97295.72;;;11.93;100.00
10470;BME280;5282;47.052;15.458;2023-05-11T01:27:02;97295.16;;;11.83;100.00
10470;BME280;5282;47.052;15.458;2023-05-11T01:30:01;97303.59;;;11.80;100.00
10470;BME280;5282;47.052;15.458;2023-05-11T01:32:32;97298.41;;;11.78;100.00
10470;BME280;5282;47.052;15.458;2023-05-11T01:35:06;97298.41;;;11.78;100.00
10470;BME280;5282;47.052;15.458;2023-05-11T01:37:35;97293.53;;;11.73;100.00
10470;BME280;5282;47.052;15.458;2023-05-11T01:40:10;97295.22;;;11.75;100.00
10470;BME280;5282;47.052;15.458;2023-05-11T01:42:42;97290.38;;;11.70;100.00
10470;BME280;5282;47.052;15.458;2023-05-11T01:45:12;97297.72;;;11.76;100.00
10470;BME280;5282;47.052;15.458;2023-05-11T01:47:47;97297.63;;;11.69;100.00
10470;BME280;5282;47.052;15.458;2023-05-11T01:50:28;97299.00;;;11.65;100.00
10470;BME280;5282;47.052;15.458;2023-05-11T01:52:57;97291.94;;;11.64;100.00
10470;BME280;5282;47.052;15.458;2023-05-11T01:55:25;97300.81;;;11.73;100.00
10470;BME280;5282;47.052;15.458;2023-05-11T01:57:54;97294.38;;;11.74;100.00
10470;BME280;5282;47.052;15.458;2023-05-11T02:00:22;97294.56;;;11.72;100.00
10470;BME280;5282;47.052;15.458;2023-05-11T02:02:52;97290.19;;;11.71;100.00
10470;BME280;5282;47.052;15.458;2023-05-11T02:05:22;97291.69;;;11.74;100.00
10470;BME280;5282;47.052;15.458;2023-05-11T02:07:50;97290.19;;;11.71;100.00
10470;BME280;5282;47.052;15.458;2023-05-11T02:10:18;97289.34;;;11.71;100.00
10470;BME280;5282;47.052;15.458;2023-05-11T02:12:48;97287.50;;;11.71;100.00
10470;BME280;5282;47.052;15.458;2023-05-11T02:15:19;97284.88;;;11.63;100.00
10470;BME280;5282;47.052;15.458;2023-05-11T02:17:48;97293.16;;;11.62;100.00
10470;BME280;5282;47.052;15.458;2023-05-11T02:20:18;97282.53;;;11.60;100.00
10470;BME280;5282;47.052;15.458;2023-05-11T02:22:46;97295.66;;;11.63;100.00
10470;BME280;5282;47.052;15.458;2023-05-11T02:25:14;97293.75;;;11.72;100.00
10470;BME280;5282;47.052;15.458;2023-05-11T02:27:42;97288.22;;;11.65;100.00
10470;BME280;5282;47.052;15.458;2023-05-11T02:30:10;97286.34;;;11.66;100.00
10470;BME280;5282;47.052;15.458;2023-05-11T02:32:43;97281.81;;;11.66;100.00
10470;BME280;5282;47.052;15.458;2023-05-11T02:35:16;97274.75;;;11.65;100.00
10470;BME280;5282;47.052;15.458;2023-05-11T02:37:45;97284.88;;;11.63;100.00
10470;BME280;5282;47.052;15.458;2023-05-11T02:40:16;97277.44;;;11.65;100.00
10470;BME280;5282;47.052;15.458;2023-05-11T02:42:44;97277.31;;;11.58;100.00
10470;BME280;5282;47.052;15.458;2023-05-11T02:45:15;97273.97;;;11.56;100.00
10470;BME280;5282;47.052;15.458;2023-05-11T02:47:46;97274.78;;;11.57;100.00
10470;BME280;5282;47.052;15.458;2023-05-11T02:50:14;97276.59;;;11.65;100.00
10470;BME280;5282;47.052;15.458;2023-05-11T02:52:46;97269.59;;;11.55;100.00
10470;BME280;5282;47.052;15.458;2023-05-11T02:55:15;97271.25;;;11.56;100.00
10470;BME280;5282;47.052;15.458;2023-05-11T02:57:43;97273.50;;;11.53;100.00
10470;BME280;5282;47.052;15.458;2023-05-11T03:00:11;97276.53;;;11.50;100.00
10470;BME280;5282;47.052;15.458;2023-05-11T03:02:38;97275.53;;;11.51;100.00
10470;BME280;5282;47.052;15.458;2023-05-11T03:05:05;97269.78;;;11.54;100.00
10470;BME280;5282;47.052;15.458;2023-05-11T03:07:35;97272.63;;;11.52;100.00
10470;BME280;5282;47.052;15.458;2023-05-11T03:10:04;97269.31;;;11.50;100.00
10470;BME280;5282;47.052;15.458;2023-05-11T03:12:32;97270.94;;;11.51;100.00
10470;BME280;5282;47.052;15.458;2023-05-11T03:15:01;97267.78;;;11.48;100.00
10470;BME280;5282;47.052;15.458;2023-05-11T03:17:29;97272.94;;;11.57;100.00
10470;BME280;5282;47.052;15.458;2023-05-11T03:19:57;97271.06;;;11.58;100.00
10470;BME280;5282;47.052;15.458;2023-05-11T03:22:28;97270.94;;;11.51;100.00
10470;BME280;5282;47.052;15.458;2023-05-11T03:24:56;97271.13;;;11.50;100.00
10470;BME280;5282;47.052;15.458;2023-05-11T03:27:26;97266.69;;;11.57;100.00
10470;BME280;5282;47.052;15.458;2023-05-11T03:29:54;97265.31;;;11.61;100.00
10470;BME280;5282;47.052;15.458;2023-05-11T03:32:22;97273.59;;;11.60;100.00
10470;BME280;5282;47.052;15.458;2023-05-11T03:34:49;97267.56;;;11.57;100.00
10470;BME280;5282;47.052;15.458;2023-05-11T03:37:17;97266.94;;;11.70;100.00
10470;BME280;5282;47.052;15.458;2023-05-11T03:39:46;97271.94;;;11.58;100.00
10470;BME280;5282;47.052;15.458;2023-05-11T03:42:14;97271.06;;;11.58;100.00
10470;BME280;5282;47.052;15.458;2023-05-11T03:44:44;97266.53;;;11.58;100.00
10470;BME280;5282;47.052;15.458;2023-05-11T03:47:13;97272.88;;;11.66;100.00
10470;BME280;5282;47.052;15.458;2023-05-11T03:49:41;97272.09;;;11.57;100.00
10470;BME280;5282;47.052;15.458;2023-05-11T03:52:09;97266.88;;;11.55;100.00
10470;BME280;5282;47.052;15.458;2023-05-11T03:54:36;97263.38;;;11.55;100.00
10470;BME280;5282;47.052;15.458;2023-05-11T03:57:03;97269.31;;;11.50;100.00
10470;BME280;5282;47.052;15.458;2023-05-11T03:59:30;97263.06;;;11.50;100.00
10470;BME280;5282;47.052;15.458;2023-05-11T04:01:58;97263.06;;;11.50;100.00
10470;BME280;5282;47.052;15.458;2023-05-11T04:04:29;97264.38;;;11.54;100.00
10470;BME280;5282;47.052;15.458;2023-05-11T04:06:57;97261.97;;;11.59;100.00
10470;BME280;5282;47.052;15.458;2023-05-11T04:09:23;97255.09;;;11.56;100.00
10470;BME280;5282;47.052;15.458;2023-05-11T04:11:50;97256.41;;;11.61;100.00
10470;BME280;5282;47.052;15.458;2023-05-11T04:14:18;97263.66;;;11.60;100.00
10470;BME280;5282;47.052;15.458;2023-05-11T04:16:45;97258.72;;;11.64;100.00
10470;BME280;5282;47.052;15.458;2023-05-11T04:19:13;97253.72;;;11.61;100.00
10470;BME280;5282;47.052;15.458;2023-05-11T04:21:41;97252.84;;;11.60;100.00
10470;BME280;5282;47.052;15.458;2023-05-11T04:24:08;97255.91;;;11.57;100.00
10470;BME280;5282;47.052;15.458;2023-05-11T04:26:35;97262.81;;;11.60;100.00
10470;BME280;5282;47.052;15.458;2023-05-11T04:29:02;97262.97;;;11.58;100.00
10470;BME280;5282;47.052;15.458;2023-05-11T04:31:29;97261.31;;;11.57;100.00
10470;BME280;5282;47.052;15.458;2023-05-11T04:33:56;97273.41;;;11.61;100.00
10470;BME280;5282;47.052;15.458;2023-05-11T04:36:24;97269.22;;;11.58;100.00
10470;BME280;5282;47.052;15.458;2023-05-11T04:38:51;97273.97;;;11.56;100.00
10470;BME280;5282;47.052;15.458;2023-05-11T04:41:18;97273.22;;;11.63;100.00
10470;BME280;5282;47.052;15.458;2023-05-11T04:43:46;97270.91;;;11.60;100.00
10470;BME280;5282;47.052;15.458;2023-05-11T04:46:16;97276.59;;;11.65;100.00
10470;BME280;5282;47.052;15.458;2023-05-11T04:48:43;97278.44;;;11.64;100.00
10470;BME280;5282;47.052;15.458;2023-05-11T04:51:10;97271.72;;;11.60;100.00
10470;BME280;5282;47.052;15.458;2023-05-11T04:53:38;97272.88;;;11.66;100.00
10470;BME280;5282;47.052;15.458;2023-05-11T04:56:05;97271.66;;;11.68;100.00
10470;BME280;5282;47.052;15.458;2023-05-11T04:58:32;97274.66;;;11.73;100.00
10470;BME280;5282;47.052;15.458;2023-05-11T05:00:59;97267.78;;;11.71;100.00
10470;BME280;5282;47.052;15.458;2023-05-11T05:03:26;97274.84;;;11.72;100.00
10470;BME280;5282;47.052;15.458;2023-05-11T05:05:53;97270.00;;;11.67;100.00
10470;BME280;5282;47.052;15.458;2023-05-11T05:08:20;97273.19;;;11.71;100.00
10470;BME280;5282;47.052;15.458;2023-05-11T05:10:48;97267.91;;;11.78;100.00
10470;BME280;5282;47.052;15.458;2023-05-11T05:13:15;97266.38;;;11.75;100.00
10470;BME280;5282;47.052;15.458;2023-05-11T05:15:42;97270.09;;;11.74;100.00
10470;BME280;5282;47.052;15.458;2023-05-11T05:18:09;97271.31;;;11.71;100.00
10470;BME280;5282;47.052;15.458;2023-05-11T05:20:36;97272.63;;;11.76;100.00
10470;BME280;5282;47.052;15.458;2023-05-11T05:23:04;97275.81;;;11.79;100.00
10470;BME280;5282;47.052;15.458;2023-05-11T05:25:30;97276.09;;;11.84;100.00
10470;BME280;5282;47.052;15.458;2023-05-11T05:27:59;97279.63;;;11.85;100.00
10470;BME280;5282;47.052;15.458;2023-05-11T05:30:26;97276.09;;;11.84;100.00
10470;BME280;5282;47.052;15.458;2023-05-11T05:32:53;97278.25;;;11.89;100.00
10470;BME280;5282;47.052;15.458;2023-05-11T05:35:21;97277.41;;;11.88;100.00
10470;BME280;5282;47.052;15.458;2023-05-11T05:37:47;97280.00;;;11.97;100.00
10470;BME280;5282;47.052;15.458;2023-05-11T05:40:15;97277.66;;;12.02;100.00
10470;BME280;5282;47.052;15.458;2023-05-11T05:42:42;97280.72;;;12.14;100.00
10470;BME280;5282;47.052;15.458;2023-05-11T05:45:10;97286.97;;;11.99;100.00
10470;BME280;5282;47.052;15.458;2023-05-11T05:47:37;97281.97;;;11.88;100.00
10470;BME280;5282;47.052;15.458;2023-05-11T05:50:06;97279.63;;;11.85;100.00
10470;BME280;5282;47.052;15.458;2023-05-11T05:52:33;97282.53;;;11.83;100.00
10470;BME280;5282;47.052;15.458;2023-05-11T05:55:00;97280.28;;;11.87;100.00
10470;BME280;5282;47.052;15.458;2023-05-11T05:57:27;97275.06;;;11.85;100.00
10470;BME280;5282;47.052;15.458;2023-05-11T05:59:55;97277.94;;;11.84;100.00
10470;BME280;5282;47.052;15.458;2023-05-11T06:02:23;97283.47;;;11.91;100.00
10470;BME280;5282;47.052;15.458;2023-05-11T06:04:50;97277.50;;;11.95;100.00
10470;BME280;5282;47.052;15.458;2023-05-11T06:07:17;97276.56;;;11.88;100.00
10470;BME280;5282;47.052;15.458;2023-05-11T06:09:43;97284.94;;;11.93;100.00
10470;BME280;5282;47.052;15.458;2023-05-11T06:12:11;97282.25;;;11.93;100.00
10470;BME280;5282;47.052;15.458;2023-05-11T06:14:37;97286.75;;;12.01;100.00
10470;BME280;5282;47.052;15.458;2023-05-11T06:17:08;97283.72;;;12.04;100.00
10470;BME280;5282;47.052;15.458;2023-05-11T06:19:36;97290.78;;;12.05;100.00
10470;BME280;5282;47.052;15.458;2023-05-11T06:22:05;97284.78;;;11.95;100.00
10470;BME280;5282;47.052;15.458;2023-05-11T06:24:32;97290.59;;;12.07;100.00
10470;BME280;5282;47.052;15.458;2023-05-11T06:26:59;97281.84;;;12.19;100.00
10470;BME280;5282;47.052;15.458;2023-05-11T06:29:26;97291.81;;;12.19;100.00
10470;BME280;5282;47.052;15.458;2023-05-11T06:31:53;97296.00;;;12.22;100.00
10470;BME280;5282;47.052;15.458;2023-05-11T06:34:20;97288.97;;;11.97;100.00
10470;BME280;5282;47.052;15.458;2023-05-11T06:36:49;97288.97;;;11.97;100.00
10470;BME280;5282;47.052;15.458;2023-05-11T06:39:16;97290.47;;;12.00;100.00
10470;BME280;5282;47.052;15.458;2023-05-11T06:41:43;97287.97;;;11.98;100.00
10470;BME280;5282;47.052;15.458;2023-05-11T06:44:10;97286.56;;;12.02;100.00
10470;BME280;5282;47.052;15.458;2023-05-11T06:46:37;97280.88;;;11.97;100.00
10470;BME280;5282;47.052;15.458;2023-05-11T06:49:04;97287.38;;;11.88;100.00
10470;BME280;5282;47.052;15.458;2023-05-11T06:51:31;97288.38;;;11.87;100.00
10470;BME280;5282;47.052;15.458;2023-05-11T06:53:59;97291.56;;;11.91;100.00
10470;BME280;5282;47.052;15.458;2023-05-11T06:56:26;97282.84;;;12.03;100.00
10470;BME280;5282;47.052;15.458;2023-05-11T06:58:53;97282.59;;;11.98;100.00
10470;BME280;5282;47.052;15.458;2023-05-11T07:01:20;97283.66;;;11.89;100.00
10470;BME280;5282;47.052;15.458;2023-05-11T07:03:47;97284.66;;;11.88;100.00
10470;BME280;5282;47.052;15.458;2023-05-11T07:06:14;97280.19;;;11.80;100.00
10470;BME280;5282;47.052;15.458;2023-05-11T07:08:41;97272.56;;;11.84;100.00
10470;BME280;5282;47.052;15.458;2023-05-11T07:11:09;97277.19;;;11.98;100.00
10470;BME280;5282;47.052;15.458;2023-05-11T07:13:37;97276.84;;;11.93;100.00
10470;BME280;5282;47.052;15.458;2023-05-11T07:16:04;97288.25;;;12.03;100.00
10470;BME280;5282;47.052;15.458;2023-05-11T07:18:31;97283.25;;;12.00;100.00
10470;BME280;5282;47.052;15.458;2023-05-11T07:20:58;97283.94;;;11.94;100.00
10470;BME280;5282;47.052;15.458;2023-05-11T07:23:24;97281.06;;;11.96;100.00
10470;BME280;5282;47.052;15.458;2023-05-11T07:25:51;97281.22;;;11.94;100.00
10470;BME280;5282;47.052;15.458;2023-05-11T07:28:23;97284.25;;;11.99;100.00
10470;BME280;5282;47.052;15.458;2023-05-11T07:30:50;97283.25;;;11.92;100.00
10470;BME280;5282;47.052;15.458;2023-05-11T07:33:17;97289.97;;;11.96;100.00
10470;BME280;5282;47.052;15.458;2023-05-11T07:35:44;97294.78;;;12.09;100.00
10470;BME280;5282;47.052;15.458;2023-05-11T07:38:11;97297.00;;;12.06;100.00
10470;BME280;5282;47.052;15.458;2023-05-11T07:40:38;97291.59;;;12.06;100.00
10470;BME280;5282;47.052;15.458;2023-05-11T07:43:05;97290.81;;;11.97;100.00
10470;BME280;5282;47.052;15.458;2023-05-11T07:45:33;97298.78;;;11.98;100.00
10470;BME280;5282;47.052;15.458;2023-05-11T07:48:00;97301.19;;;12.08;100.00
10470;BME280;5282;47.052;15.458;2023-05-11T07:50:27;97298.88;;;12.05;100.00
10470;BME280;5282;47.052;15.458;2023-05-11T07:52:54;97293.88;;;11.94;100.00
10470;BME280;5282;47.052;15.458;2023-05-11T07:55:21;97298.81;;;11.90;100.00
10470;BME280;5282;47.052;15.458;2023-05-11T07:57:49;97291.66;;;11.97;100.00
10470;BME280;5282;47.052;15.458;2023-05-11T08:00:17;97293.00;;;12.01;100.00
10470;BME280;5282;47.052;15.458;2023-05-11T08:02:45;97295.72;;;11.93;100.00
10470;BME280;5282;47.052;15.458;2023-05-11T08:05:12;97300.38;;;12.08;100.00
10470;BME280;5282;47.052;15.458;2023-05-11T08:07:39;97296.84;;;12.07;100.00
10470;BME280;5282;47.052;15.458;2023-05-11T08:10:07;97296.94;;;11.91;100.00
10470;BME280;5282;47.052;15.458;2023-05-11T08:12:34;97300.66;;;11.89;100.00
10470;BME280;5282;47.052;15.458;2023-05-11T08:15:02;97291.44;;;11.84;100.00
10470;BME280;5282;47.052;15.458;2023-05-11T08:17:29;97295.50;;;11.80;100.00
10470;BME280;5282;47.052;15.458;2023-05-11T08:19:57;97301.50;;;11.90;100.00
10470;BME280;5282;47.052;15.458;2023-05-11T08:22:24;97287.84;;;11.92;100.00
10470;BME280;5282;47.052;15.458;2023-05-11T08:24:50;97287.72;;;11.85;100.00
10470;BME280;5282;47.052;15.458;2023-05-11T08:27:17;97287.97;;;11.75;100.00
10470;BME280;5282;47.052;15.458;2023-05-11T08:29:44;97291.63;;;11.82;100.00
10470;BME280;5282;47.052;15.458;2023-05-11T08:32:11;97292.19;;;11.78;100.00
10470;BME280;5282;47.052;15.458;2023-05-11T08:34:37;97286.91;;;11.84;100.00
10470;BME280;5282;47.052;15.458;2023-05-11T08:37:06;97289.28;;;11.79;100.00
10470;BME280;5282;47.052;15.458;2023-05-11T08:39:32;97293.47;;;11.82;100.00
10470;BME280;5282;47.052;15.458;2023-05-11T08:42:01;97294.56;;;11.96;100.00
10470;BME280;5282;47.052;15.458;2023-05-11T08:44:28;97297.19;;;11.81;100.00
10470;BME280;5282;47.052;15.458;2023-05-11T08:46:57;97286.91;;;11.61;100.00
10470;BME280;5282;47.052;15.458;2023-05-11T08:49:25;97290.91;;;11.65;100.00
10470;BME280;5282;47.052;15.458;2023-05-11T08:51:53;97288.63;;;11.77;100.00
10470;BME280;5282;47.052;15.458;2023-05-11T08:54:22;97291.59;;;11.67;100.00
10470;BME280;5282;47.052;15.458;2023-05-11T08:56:49;97288.88;;;11.67;100.00
10470;BME280;5282;47.052;15.458;2023-05-11T08:59:17;97294.69;;;11.79;100.00
10470;BME280;5282;47.052;15.458;2023-05-11T09:01:44;97287.47;;;11.95;100.00
10470;BME280;5282;47.052;15.458;2023-05-11T09:04:12;97287.28;;;11.96;100.00
10470;BME280;5282;47.052;15.458;2023-05-11T09:06:40;97284.63;;;11.73;100.00
10470;BME280;5282;47.052;15.458;2023-05-11T09:09:07;97281.38;;;11.78;100.00
10470;BME280;5282;47.052;15.458;2023-05-11T09:11:35;97287.59;;;11.78;100.00
10470;BME280;5282;47.052;15.458;2023-05-11T09:14:02;97284.66;;;11.88;100.00
10470;BME280;5282;47.052;15.458;2023-05-11T09:16:29;97291.00;;;11.95;100.00
10470;BME280;5282;47.052;15.458;2023-05-11T09:18:59;97285.41;;;11.97;100.00
10470;BME280;5282;47.052;15.458;2023-05-11T09:21:28;97290.66;;;11.75;100.00
10470;BME280;5282;47.052;15.458;2023-05-11T09:23:55;97292.06;;;11.71;100.00
10470;BME280;5282;47.052;15.458;2023-05-11T09:26:24;97285.69;;;11.64;100.00
10470;BME280;5282;47.052;15.458;2023-05-11T09:28:56;97288.47;;;11.79;100.00
10470;BME280;5282;47.052;15.458;2023-05-11T09:31:40;97299.66;;;11.91;100.00
10470;BME280;5282;47.052;15.458;2023-05-11T09:34:08;97296.59;;;11.94;100.00
10470;BME280;5282;47.052;15.458;2023-05-11T09:36:36;97291.34;;;12.00;100.00
10470;BME280;5282;47.052;15.458;2023-05-11T09:39:03;97293.63;;;11.65;100.00
10470;BME280;5282;47.052;15.458;2023-05-11T09:41:30;97291.03;;;11.49;100.00
10470;BME280;5282;47.052;15.458;2023-05-11T09:44:05;97281.94;;;11.50;100.00
10470;BME280;5282;47.052;15.458;2023-05-11T09:46:33;97273.41;;;11.61;100.00
10470;BME280;5282;47.052;15.458;2023-05-11T09:49:01;97280.69;;;11.61;100.00
10470;BME280;5282;47.052;15.458;2023-05-11T09:51:30;97283.72;;;11.57;100.00
10470;BME280;5282;47.052;15.458;2023-05-11T09:53:58;97275.41;;;11.44;100.00
10470;BME280;5282;47.052;15.458;2023-05-11T09:56:43;97269.53;;;11.40;100.00
10470;BME280;5282;47.052;15.458;2023-05-11T09:59:14;97271.94;;;11.58;100.00
10470;BME280;5282;47.052;15.458;2023-05-11T10:01:41;97272.88;;;11.66;100.00
10470;BME280;5282;47.052;15.458;2023-05-11T10:04:08;97270.59;;;11.78;100.00
10470;BME280;5282;47.052;15.458;2023-05-11T10:06:43;97272.34;;;11.85;100.00
10470;BME280;5282;47.052;15.458;2023-05-11T10:09:11;97275.88;;;11.71;100.00
10470;BME280;5282;47.052;15.458;2023-05-11T10:11:42;97271.84;;;11.67;100.00
10470;BME280;5282;47.052;15.458;2023-05-11T10:14:12;97275.13;;;11.77;100.00
10470;BME280;5282;47.052;15.458;2023-05-11T10:16:44;97273.84;;;11.73;100.00
10470;BME280;5282;47.052;15.458;2023-05-11T10:19:12;97281.75;;;11.75;100.00
10470;BME280;5282;47.052;15.458;2023-05-11T10:21:39;97279.31;;;11.80;100.00
10470;BME280;5282;47.052;15.458;2023-05-11T10:24:07;97280.19;;;11.80;100.00
10470;BME280;5282;47.052;15.458;2023-05-11T10:26:34;97278.03;;;11.76;100.00
10470;BME280;5282;47.052;15.458;2023-05-11T10:29:01;97287.66;;;11.47;100.00
10470;BME280;5282;47.052;15.458;2023-05-11T10:31:30;97286.41;;;11.34;100.00
10470;BME280;5282;47.052;15.458;2023-05-11T10:34:00;97281.41;;;11.23;100.00
10470;BME280;5282;47.052;15.458;2023-05-11T10:36:29;97291.66;;;11.27;100.00
10470;BME280;5282;47.052;15.458;2023-05-11T10:38:56;97294.31;;;11.36;100.00
10470;BME280;5282;47.052;15.458;2023-05-11T10:41:34;97288.31;;;10.94;100.00
10470;BME280;5282;47.052;15.458;2023-05-11T10:44:36;97295.94;;;10.82;100.00
10470;BME280;5282;47.052;15.458;2023-05-11T10:47:22;97290.97;;;11.02;100.00
10470;BME280;5282;47.052;15.458;2023-05-11T10:50:22;97297.16;;;11.11;100.00
10470;BME280;5282;47.052;15.458;2023-05-11T10:53:05;97292.97;;;11.08;100.00
10470;BME280;5282;47.052;15.458;2023-05-11T10:55:51;97297.69;;;11.06;100.00
10470;BME280;5282;47.052;15.458;2023-05-11T10:58:32;97294.28;;;11.13;100.00
10470;BME280;5282;47.052;15.458;2023-05-11T11:01:23;97294.38;;;10.96;100.00
10470;BME280;5282;47.052;15.458;2023-05-11T11:03:56;97303.94;;;10.59;100.00
10470;BME280;5282;47.052;15.458;2023-05-11T11:06:24;97316.69;;;10.73;100.00
10470;BME280;5282;47.052;15.458;2023-05-11T11:08:57;97305.22;;;10.79;100.00
10470;BME280;5282;47.052;15.458;2023-05-11T11:11:28;97307.03;;;10.87;100.00
10470;BME280;5282;47.052;15.458;2023-05-11T11:13:56;97296.41;;;10.94;100.00
10470;BME280;5282;47.052;15.458;2023-05-11T11:16:23;97297.38;;;11.01;100.00
10470;BME280;5282;47.052;15.458;2023-05-11T11:22:02;97300.66;;;11.20;100.00
10470;BME280;5282;47.052;15.458;2023-05-11T11:24:42;97297.78;;;11.21;100.00
10470;BME280;5282;47.052;15.458;2023-05-11T11:27:10;97295.09;;;11.21;100.00
10470;BME280;5282;47.052;15.458;2023-05-11T11:29:38;97292.88;;;11.25;100.00
10470;BME280;5282;47.052;15.458;2023-05-11T11:32:24;97300.59;;;11.28;100.00
10470;BME280;5282;47.052;15.458;2023-05-11T11:34:52;97298.38;;;11.08;100.00
10470;BME280;5282;47.052;15.458;2023-05-11T11:37:20;97304.19;;;11.20;100.00
10470;BME280;5282;47.052;15.458;2023-05-11T11:39:50;97289.78;;;11.05;100.00
10470;BME280;5282;47.052;15.458;2023-05-11T11:42:35;97287.81;;;11.22;100.00
10470;BME280;5282;47.052;15.458;2023-05-11T11:48:13;97288.09;;;11.35;100.00
10470;BME280;5282;47.052;15.458;2023-05-11T11:50:42;97307.41;;;11.16;100.00
10470;BME280;5282;47.052;15.458;2023-05-11T11:53:12;97310.16;;;11.07;100.00
10470;BME280;5282;47.052;15.458;2023-05-11T11:55:49;97304.00;;;11.22;100.00
10470;BME280;5282;47.052;15.458;2023-05-11T12:01:22;97307.47;;;11.31;100.00
10470;BME280;5282;47.052;15.458;2023-05-11T12:04:08;97311.19;;;11.30;100.00
10470;BME280;5282;47.052;15.458;2023-05-11T12:06:37;97301.63;;;11.27;100.00
10470;BME280;5282;47.052;15.458;2023-05-11T12:09:05;97304.00;;;11.22;100.00
10470;BME280;5282;47.052;15.458;2023-05-11T12:11:33;97301.56;;;11.35;100.00
10470;BME280;5282;47.052;15.458;2023-05-11T12:14:01;97302.22;;;11.37;100.00
10470;BME280;5282;47.052;15.458;2023-05-11T12:16:30;97308.47;;;11.38;100.00
10470;BME280;5282;47.052;15.458;2023-05-11T12:18:58;97316.56;;;11.38;100.00
10470;BME280;5282;47.052;15.458;2023-05-11T12:21:27;97304.84;;;11.46;100.00
10470;BME280;5282;47.052;15.458;2023-05-11T12:23:55;97305.38;;;11.49;100.00
10470;BME280;5282;47.052;15.458;2023-05-11T12:26:26;97311.66;;;11.41;100.00
10470;BME280;5282;47.052;15.458;2023-05-11T12:29:06;97307.75;;;11.44;100.00
10470;BME280;5282;47.052;15.458;2023-05-11T12:31:36;97310.56;;;11.51;100.00
10470;BME280;5282;47.052;15.458;2023-05-11T12:34:03;97314.47;;;11.48;100.00
10470;BME280;5282;47.052;15.458;2023-05-11T12:36:31;97309.91;;;11.49;100.00
10470;BME280;5282;47.052;15.458;2023-05-11T12:38:59;97304.41;;;11.65;100.00
10470;BME280;5282;47.052;15.458;2023-05-11T12:41:27;97305.16;;;11.51;100.00
10470;BME280;5282;47.052;15.458;2023-05-11T12:43:54;97301.75;;;11.34;100.00
10470;BME280;5282;47.052;15.458;2023-05-11T12:46:22;97303.66;;;11.25;100.00
10470;BME280;5282;47.052;15.458;2023-05-11T12:48:49;97290.16;;;11.25;100.00
10470;BME280;5282;47.052;15.458;2023-05-11T12:54:30;97300.00;;;11.18;100.00
10470;BME280;5282;47.052;15.458;2023-05-11T12:57:00;97293.81;;;11.09;100.00
10470;BME280;5282;47.052;15.458;2023-05-11T12:59:34;97291.78;;;11.11;100.00
10470;BME280;5282;47.052;15.458;2023-05-11T13:02:09;97287.06;;;11.05;100.00
10470;BME280;5282;47.052;15.458;2023-05-11T13:04:37;97292.47;;;11.05;100.00
10470;BME280;5282;47.052;15.458;2023-05-11T13:07:04;97300.03;;;11.09;100.00
10470;BME280;5282;47.052;15.458;2023-05-11T13:09:31;97299.72;;;11.04;100.00
10470;BME280;5282;47.052;15.458;2023-05-11T13:12:08;97292.59;;;11.11;100.00
10470;BME280;5282;47.052;15.458;2023-05-11T13:14:35;97305.03;;;11.21;100.00